createdAt,value
2022-08-03T02:23:23.812Z,98769.91
2022-08-03T02:28:32.558Z,98770.09
2022-08-03T02:33:41.295Z,98774.78
2022-08-03T02:38:49.589Z,98762.16
2022-08-03T02:44:05.683Z,98764.41
2022-08-03T02:49:42.667Z,98775.19
2022-08-03T02:54:38.007Z,98777.31
2022-08-03T02:59:42.082Z,98774.25
2022-08-03T03:05:52.834Z,98788.22
2022-08-03T03:10:10.922Z,98786.44
2022-08-03T03:15:13.486Z,98783.16
2022-08-03T03:20:16.842Z,98785.41
2022-08-03T03:25:33.972Z,98789.78
2022-08-03T03:30:36.831Z,98795.59
2022-08-03T03:35:41.825Z,98803.22
2022-08-03T03:40:46.077Z,98798.97
2022-08-03T03:46:38.641Z,98807.56
2022-08-03T03:51:41.262Z,98806.38
2022-08-03T03:56:44.671Z,98803.22
2022-08-03T04:01:47.381Z,98811.56
2022-08-03T04:07:19.923Z,98805.81
2022-08-03T04:12:26.797Z,98816.41
2022-08-03T04:17:31.080Z,98808.91
2022-08-03T04:22:34.876Z,98817.03
2022-08-03T04:27:41.926Z,98820.19
2022-08-03T04:32:50.353Z,98824.44
2022-08-03T04:37:55.394Z,98831.00
2022-08-03T04:43:00.149Z,98831.94
2022-08-03T04:48:03.342Z,98830.09
2022-08-03T04:53:06.849Z,98837.31
2022-08-03T04:58:12.098Z,98837.72
2022-08-03T05:03:23.653Z,98836.03
2022-08-03T05:08:28.053Z,98832.44
2022-08-03T05:13:31.789Z,98840.53
2022-08-03T05:18:35.495Z,98843.22
2022-08-03T05:23:38.158Z,98854.59
2022-08-03T05:28:49.927Z,98855.84
2022-08-03T05:33:54.879Z,98848.06
2022-08-03T05:39:02.210Z,98847.81
2022-08-03T05:44:06.671Z,98850.88
2022-08-03T05:49:12.048Z,98850.13
2022-08-03T05:54:14.818Z,98853.22
2022-08-03T05:59:37.659Z,98851.19
2022-08-03T06:04:40.858Z,98851.44
2022-08-03T06:10:34.467Z,98844.00
2022-08-03T06:15:11.274Z,98852.25
2022-08-03T06:20:16.098Z,98857.25
2022-08-03T06:25:21.328Z,98864.50
2022-08-03T06:30:25.129Z,98858.69
2022-08-03T06:35:28.119Z,98861.53
2022-08-03T06:40:31.755Z,98849.16
2022-08-03T06:45:35.828Z,98854.44
2022-08-03T06:50:41.063Z,98865.84
2022-08-03T06:55:45.363Z,98875.28
2022-08-03T07:00:49.240Z,98874.53
2022-08-03T07:05:51.897Z,98870.50
2022-08-03T07:10:54.883Z,98861.41
2022-08-03T07:16:01.733Z,98869.97
2022-08-03T07:21:04.441Z,98860.28
2022-08-03T07:26:07.187Z,98874.50
2022-08-03T07:31:11.055Z,98853.38
2022-08-03T07:36:13.840Z,98860.41
2022-08-03T07:41:16.836Z,98873.38
2022-08-03T07:46:20.216Z,98868.75
2022-08-03T07:51:23.556Z,98873.81
2022-08-03T07:56:27.628Z,98868.72
2022-08-03T08:01:36.072Z,98873.88
2022-08-03T08:06:39.847Z,98883.91
2022-08-03T08:11:42.674Z,98889.16
2022-08-03T08:16:47.785Z,98883.66
2022-08-03T08:22:02.425Z,98874.59
2022-08-03T08:27:06.081Z,98884.44
2022-08-03T08:32:10.809Z,98873.31
2022-08-03T08:37:13.557Z,98876.34
2022-08-03T08:42:16.626Z,98871.81
2022-08-03T08:47:24.155Z,98875.16
2022-08-03T08:52:31.787Z,98869.91
2022-08-03T08:57:42.708Z,98874.91
2022-08-03T09:02:47.471Z,98877.59
2022-08-03T09:07:50.637Z,98869.22
2022-08-03T09:12:53.766Z,98880.56
2022-08-03T09:18:00.398Z,98864.78
2022-08-03T09:23:24.698Z,98865.69
2022-08-03T09:28:59.411Z,98854.78
2022-08-03T09:34:02.423Z,98850.91
2022-08-03T09:39:06.892Z,98840.00
2022-08-03T09:44:25.359Z,98850.53
2022-08-03T09:49:29.740Z,98851.13
2022-08-03T09:54:33.776Z,98866.16
2022-08-03T09:59:39.116Z,98867.88
2022-08-03T10:04:48.461Z,98855.41
2022-08-03T10:09:57.613Z,98848.19
2022-08-03T10:15:00.830Z,98857.28
2022-08-03T10:20:06.568Z,98854.22
2022-08-03T10:25:11.802Z,98850.03
2022-08-03T10:30:16.735Z,98844.09
2022-08-03T10:35:22.881Z,98837.16
2022-08-03T10:40:46.844Z,98840.88
2022-08-03T10:45:51.219Z,98832.91
2022-08-03T10:50:56.702Z,98829.94
2022-08-03T10:56:20.350Z,98825.00
2022-08-03T11:02:00.850Z,98831.13
2022-08-03T11:07:22.556Z,98833.19
2022-08-03T11:12:30.855Z,98817.38
2022-08-03T11:17:46.270Z,98818.41
2022-08-03T11:23:01.153Z,98821.19
2022-08-03T11:28:25.527Z,98806.19
2022-08-03T11:33:32.020Z,98797.38
2022-08-03T11:38:35.466Z,98811.66
2022-08-03T11:43:45.260Z,98803.28
2022-08-03T11:48:49.795Z,98791.84
2022-08-03T11:53:55.074Z,98784.97
2022-08-03T11:59:20.354Z,98785.97
2022-08-03T12:04:22.558Z,98791.09
2022-08-03T12:09:26.280Z,98788.00
2022-08-03T12:14:48.713Z,98782.34
2022-08-03T12:19:52.927Z,98781.56
2022-08-03T12:24:56.240Z,98786.75
2022-08-03T12:30:01.028Z,98779.78
2022-08-03T12:35:05.492Z,98779.41
2022-08-03T12:40:17.806Z,98779.19
2022-08-03T12:45:24.124Z,98766.31
2022-08-03T12:50:29.046Z,98773.84
2022-08-03T12:55:40.131Z,98754.22
2022-08-03T13:07:15.239Z,98767.72
2022-08-03T13:12:20.899Z,98760.22
2022-08-03T13:17:24.204Z,98766.22
2022-08-03T13:22:28.506Z,98755.22
2022-08-03T13:28:04.353Z,98745.09
2022-08-03T13:32:54.746Z,98759.84
2022-08-03T13:37:57.826Z,98754.38
2022-08-03T13:43:02.426Z,98763.03
2022-08-03T13:48:05.918Z,98755.72
2022-08-03T13:53:09.014Z,98752.19
2022-08-03T13:58:12.691Z,98756.97
2022-08-03T14:03:15.538Z,98747.44
2022-08-03T14:08:18.334Z,98754.00
2022-08-03T14:13:22.711Z,98749.22
2022-08-03T14:18:28.639Z,98751.22
2022-08-03T14:23:38.043Z,98743.72
2022-08-03T14:28:41.907Z,98749.94
2022-08-03T14:33:44.800Z,98757.47
2022-08-03T14:38:47.534Z,98749.13
2022-08-03T14:44:02.239Z,98756.56
2022-08-03T14:50:36.396Z,98751.75
2022-08-03T14:54:30.494Z,98762.47
2022-08-03T14:59:55.854Z,98753.22
2022-08-03T15:04:56.251Z,98745.06
2022-08-03T15:09:59.061Z,98750.94
2022-08-03T15:15:02.357Z,98753.16
2022-08-03T15:20:28.967Z,98741.00
2022-08-03T15:26:28.679Z,98747.09
2022-08-03T15:30:54.736Z,98739.06
2022-08-03T15:35:59.542Z,98737.16
2022-08-03T15:41:02.249Z,98735.69
2022-08-03T15:46:28.619Z,98735.59
2022-08-03T15:51:29.266Z,98742.09
2022-08-03T15:56:32.184Z,98734.19
2022-08-03T16:01:35.777Z,98736.78
2022-08-03T16:06:39.468Z,98725.56
2022-08-03T16:11:42.158Z,98730.25
2022-08-03T16:16:45.866Z,98735.16
2022-08-03T16:21:50.184Z,98729.56
2022-08-03T16:26:55.578Z,98737.50
2022-08-03T16:32:09.317Z,98743.97
2022-08-03T16:37:37.085Z,98739.97
2022-08-03T16:42:35.344Z,98742.31
2022-08-03T16:47:38.826Z,98737.88
2022-08-03T16:52:43.067Z,98748.97
2022-08-03T16:57:59.119Z,98748.22
2022-08-03T17:03:18.777Z,98746.16
2022-08-03T17:08:28.155Z,98742.41
2022-08-03T17:13:39.177Z,98754.53
2022-08-03T17:18:50.407Z,98755.19
2022-08-03T17:23:59.461Z,98749.28
2022-08-03T17:29:11.303Z,98754.88
2022-08-03T17:34:17.280Z,98760.94
2022-08-03T17:39:41.876Z,98761.00
2022-08-03T17:44:47.106Z,98770.00
2022-08-03T17:49:52.309Z,98772.34
2022-08-03T17:55:56.226Z,98791.75
2022-08-03T18:00:45.150Z,98788.34
2022-08-03T18:06:10.439Z,98801.78
2022-08-03T18:11:15.909Z,98807.19
2022-08-03T18:16:24.647Z,98812.19
2022-08-03T18:22:03.231Z,98812.38
2022-08-03T18:26:54.724Z,98824.47
2022-08-03T18:32:03.798Z,98826.13
2022-08-03T18:37:10.424Z,98822.69
2022-08-03T18:42:19.614Z,98835.56
2022-08-03T18:47:50.841Z,98837.75
2022-08-03T18:53:05.029Z,98841.41
2022-08-03T18:58:25.612Z,98840.75
2022-08-03T19:03:43.402Z,98836.94
2022-08-03T19:08:50.818Z,98839.28
2022-08-03T19:13:56.434Z,98841.25
2022-08-03T19:19:01.451Z,98842.66
2022-08-03T19:24:10.155Z,98840.41
2022-08-03T19:29:15.171Z,98839.41
2022-08-03T19:34:19.506Z,98837.69
2022-08-03T19:39:23.272Z,98840.88
2022-08-03T19:44:31.309Z,98836.16
2022-08-03T19:50:00.004Z,98844.09
2022-08-03T19:55:05.260Z,98850.66
2022-08-03T20:00:12.119Z,98852.31
2022-08-03T20:05:19.580Z,98848.47
2022-08-03T20:10:23.306Z,98846.69
2022-08-03T20:15:31.149Z,98851.69
2022-08-03T20:20:37.293Z,98844.53
2022-08-03T20:25:48.680Z,98844.66
2022-08-03T20:31:01.983Z,98850.34
2022-08-03T20:36:05.539Z,98853.59
2022-08-03T20:41:09.565Z,98840.53
2022-08-03T20:46:30.973Z,98854.84
2022-08-03T20:51:50.626Z,98853.38
2022-08-03T20:56:57.659Z,98853.31
2022-08-03T21:02:00.940Z,98855.66
2022-08-03T21:07:16.294Z,98853.50
2022-08-03T21:12:29.179Z,98860.78
2022-08-03T21:17:41.591Z,98862.41
2022-08-03T21:28:53.802Z,98864.13
2022-08-03T21:33:58.272Z,98872.31
2022-08-03T21:39:01.564Z,98872.38
2022-08-03T21:44:06.103Z,98875.50
2022-08-03T21:49:52.646Z,98875.78
2022-08-03T21:54:36.569Z,98876.41
2022-08-03T21:59:44.863Z,98884.81
2022-08-03T22:04:53.174Z,98876.31
2022-08-03T22:10:00.910Z,98876.94
2022-08-03T22:15:07.005Z,98877.91
2022-08-03T22:20:13.855Z,98879.59
2022-08-03T22:25:16.601Z,98879.28
2022-08-03T22:30:20.183Z,98882.16
2022-08-03T22:35:25.178Z,98882.84
2022-08-03T22:40:28.071Z,98875.06
2022-08-03T22:46:06.206Z,98876.63
2022-08-03T22:50:56.608Z,98875.19
2022-08-03T22:55:59.364Z,98871.59
2022-08-03T23:01:07.017Z,98871.66
2022-08-03T23:06:10.123Z,98867.50
2022-08-03T23:11:15.241Z,98876.91
2022-08-03T23:16:28.987Z,98877.06
2022-08-03T23:21:53.676Z,98870.03
2022-08-03T23:26:56.700Z,98866.72
2022-08-03T23:32:01.843Z,98869.50
2022-08-03T23:37:05.862Z,98871.25
2022-08-03T23:42:10.031Z,98867.81
2022-08-03T23:47:13.643Z,98873.31
2022-08-03T23:52:24.171Z,98863.25
2022-08-03T23:57:34.047Z,98873.38
